sensor_id;sensor_type;location;lat;lon;timestamp;P1;durP1;ratioP1;P2;durP2;ratioP2
71091;SDS011;58751;50.708;7.134;2023-12-04T00:01:57;14.70;;;10.77;;
71091;SDS011;58751;50.708;7.134;2023-12-04T00:04:23;13.70;;;8.87;;
71091;SDS011;58751;50.708;7.134;2023-12-04T00:06:48;14.13;;;9.50;;
71091;SDS011;58751;50.708;7.134;2023-12-04T00:09:14;13.70;;;11.03;;
71091;SDS011;58751;50.708;7.134;2023-12-04T00:11:40;13.43;;;10.03;;
71091;SDS011;58751;50.708;7.134;2023-12-04T00:14:06;17.27;;;10.63;;
71091;SDS011;58751;50.708;7.134;2023-12-04T00:16:33;13.40;;;9.70;;
71091;SDS011;58751;50.708;7.134;2023-12-04T00:18:58;18.40;;;10.75;;
71091;SDS011;58751;50.708;7.134;2023-12-04T00:21:24;14.40;;;10.60;;
71091;SDS011;58751;50.708;7.134;2023-12-04T00:23:49;17.10;;;12.37;;
71091;SDS011;58751;50.708;7.134;2023-12-04T00:26:15;15.00;;;9.13;;
71091;SDS011;58751;50.708;7.134;2023-12-04T00:28:41;14.93;;;9.90;;
71091;SDS011;58751;50.708;7.134;2023-12-04T00:31:08;15.65;;;9.95;;
71091;SDS011;58751;50.708;7.134;2023-12-04T00:33:33;14.57;;;9.50;;
71091;SDS011;58751;50.708;7.134;2023-12-04T00:35:59;11.30;;;8.10;;
71091;SDS011;58751;50.708;7.134;2023-12-04T00:38:24;16.23;;;11.10;;
71091;SDS011;58751;50.708;7.134;2023-12-04T00:40:49;16.87;;;10.23;;
71091;SDS011;58751;50.708;7.134;2023-12-04T00:43:15;13.20;;;9.67;;
71091;SDS011;58751;50.708;7.134;2023-12-04T00:45:41;14.87;;;10.67;;
71091;SDS011;58751;50.708;7.134;2023-12-04T00:48:07;11.43;;;8.18;;
71091;SDS011;58751;50.708;7.134;2023-12-04T00:50:32;16.77;;;9.60;;
71091;SDS011;58751;50.708;7.134;2023-12-04T00:52:58;16.97;;;11.03;;
71091;SDS011;58751;50.708;7.134;2023-12-04T00:55:23;15.53;;;9.50;;
71091;SDS011;58751;50.708;7.134;2023-12-04T00:57:48;16.33;;;10.13;;
71091;SDS011;58751;50.708;7.134;2023-12-04T01:00:14;14.57;;;9.80;;
71091;SDS011;58751;50.708;7.134;2023-12-04T01:02:41;13.20;;;10.50;;
71091;SDS011;58751;50.708;7.134;2023-12-04T01:05:07;12.00;;;9.55;;
71091;SDS011;58751;50.708;7.134;2023-12-04T01:07:32;11.53;;;9.30;;
71091;SDS011;58751;50.708;7.134;2023-12-04T01:09:58;13.50;;;10.27;;
71091;SDS011;58751;50.708;7.134;2023-12-04T01:12:23;16.07;;;11.27;;
71091;SDS011;58751;50.708;7.134;2023-12-04T01:14:48;13.50;;;10.30;;
71091;SDS011;58751;50.708;7.134;2023-12-04T01:17:14;15.20;;;10.90;;
71091;SDS011;58751;50.708;7.134;2023-12-04T01:19:41;16.70;;;10.13;;
71091;SDS011;58751;50.708;7.134;2023-12-04T01:22:06;14.30;;;11.02;;
71091;SDS011;58751;50.708;7.134;2023-12-04T01:24:32;12.63;;;8.20;;
71091;SDS011;58751;50.708;7.134;2023-12-04T01:26:57;15.93;;;10.43;;
71091;SDS011;58751;50.708;7.134;2023-12-04T01:29:23;17.33;;;11.27;;
71091;SDS011;58751;50.708;7.134;2023-12-04T01:31:48;16.30;;;10.07;;
71091;SDS011;58751;50.708;7.134;2023-12-04T01:34:13;15.23;;;10.63;;
71091;SDS011;58751;50.708;7.134;2023-12-04T01:36:41;13.83;;;9.23;;
71091;SDS011;58751;50.708;7.134;2023-12-04T01:39:06;13.90;;;10.07;;
71091;SDS011;58751;50.708;7.134;2023-12-04T01:41:32;13.57;;;9.60;;
71091;SDS011;58751;50.708;7.134;2023-12-04T01:43:57;15.53;;;10.63;;
71091;SDS011;58751;50.708;7.134;2023-12-04T01:46:22;11.30;;;7.37;;
71091;SDS011;58751;50.708;7.134;2023-12-04T01:48:48;10.97;;;8.40;;
71091;SDS011;58751;50.708;7.134;2023-12-04T01:51:14;13.30;;;9.77;;
71091;SDS011;58751;50.708;7.134;2023-12-04T01:53:41;12.17;;;8.70;;
71091;SDS011;58751;50.708;7.134;2023-12-04T01:56:07;12.88;;;9.95;;
71091;SDS011;58751;50.708;7.134;2023-12-04T01:58:34;17.58;;;10.88;;
71091;SDS011;58751;50.708;7.134;2023-12-04T02:00:59;12.00;;;8.50;;
71091;SDS011;58751;50.708;7.134;2023-12-04T02:03:24;12.10;;;9.03;;
71091;SDS011;58751;50.708;7.134;2023-12-04T02:05:50;15.23;;;9.23;;
71091;SDS011;58751;50.708;7.134;2023-12-04T02:08:16;12.73;;;9.23;;
71091;SDS011;58751;50.708;7.134;2023-12-04T02:10:43;12.20;;;9.10;;
71091;SDS011;58751;50.708;7.134;2023-12-04T02:13:08;19.60;;;10.65;;
71091;SDS011;58751;50.708;7.134;2023-12-04T02:15:34;12.77;;;9.60;;
71091;SDS011;58751;50.708;7.134;2023-12-04T02:17:59;14.93;;;10.13;;
71091;SDS011;58751;50.708;7.134;2023-12-04T02:20:30;15.10;;;9.87;;
71091;SDS011;58751;50.708;7.134;2023-12-04T02:22:56;13.27;;;9.25;;
71091;SDS011;58751;50.708;7.134;2023-12-04T02:25:22;10.10;;;8.17;;
71091;SDS011;58751;50.708;7.134;2023-12-04T02:27:49;12.27;;;9.25;;
71091;SDS011;58751;50.708;7.134;2023-12-04T02:30:15;18.58;;;10.45;;
71091;SDS011;58751;50.708;7.134;2023-12-04T02:32:44;14.45;;;10.88;;
71091;SDS011;58751;50.708;7.134;2023-12-04T02:35:10;12.68;;;9.95;;
71091;SDS011;58751;50.708;7.134;2023-12-04T02:37:36;12.95;;;9.95;;
71091;SDS011;58751;50.708;7.134;2023-12-04T02:40:03;12.68;;;9.95;;
71091;SDS011;58751;50.708;7.134;2023-12-04T02:42:31;15.45;;;10.10;;
71091;SDS011;58751;50.708;7.134;2023-12-04T02:44:56;12.48;;;10.00;;
71091;SDS011;58751;50.708;7.134;2023-12-04T02:47:21;14.10;;;9.53;;
71091;SDS011;58751;50.708;7.134;2023-12-04T02:49:47;15.43;;;11.20;;
71091;SDS011;58751;50.708;7.134;2023-12-04T02:52:12;11.97;;;8.57;;
71091;SDS011;58751;50.708;7.134;2023-12-04T02:54:38;13.63;;;10.27;;
71091;SDS011;58751;50.708;7.134;2023-12-04T02:57:03;15.77;;;10.97;;
71091;SDS011;58751;50.708;7.134;2023-12-04T02:59:30;16.50;;;11.60;;
71091;SDS011;58751;50.708;7.134;2023-12-04T03:01:55;15.40;;;10.98;;
71091;SDS011;58751;50.708;7.134;2023-12-04T03:04:21;15.07;;;10.83;;
71091;SDS011;58751;50.708;7.134;2023-12-04T03:06:46;14.47;;;10.57;;
71091;SDS011;58751;50.708;7.134;2023-12-04T03:09:11;15.77;;;11.03;;
71091;SDS011;58751;50.708;7.134;2023-12-04T03:11:39;15.00;;;11.10;;
71091;SDS011;58751;50.708;7.134;2023-12-04T03:14:04;13.00;;;9.82;;
71091;SDS011;58751;50.708;7.134;2023-12-04T03:16:31;11.93;;;9.33;;
71091;SDS011;58751;50.708;7.134;2023-12-04T03:18:56;12.30;;;10.50;;
71091;SDS011;58751;50.708;7.134;2023-12-04T03:21:22;14.57;;;10.77;;
71091;SDS011;58751;50.708;7.134;2023-12-04T03:23:47;14.53;;;10.20;;
71091;SDS011;58751;50.708;7.134;2023-12-04T03:26:12;13.80;;;10.30;;
71091;SDS011;58751;50.708;7.134;2023-12-04T03:28:38;13.40;;;9.90;;
71091;SDS011;58751;50.708;7.134;2023-12-04T03:31:03;14.33;;;10.53;;
71091;SDS011;58751;50.708;7.134;2023-12-04T03:33:31;16.20;;;10.95;;
71091;SDS011;58751;50.708;7.134;2023-12-04T03:35:56;17.30;;;11.20;;
71091;SDS011;58751;50.708;7.134;2023-12-04T03:38:21;15.80;;;11.40;;
71091;SDS011;58751;50.708;7.134;2023-12-04T03:40:47;20.30;;;11.40;;
71091;SDS011;58751;50.708;7.134;2023-12-04T03:43:12;15.03;;;10.67;;
71091;SDS011;58751;50.708;7.134;2023-12-04T03:45:37;15.20;;;10.53;;
71091;SDS011;58751;50.708;7.134;2023-12-04T03:48:03;17.10;;;10.97;;
71091;SDS011;58751;50.708;7.134;2023-12-04T03:50:30;16.27;;;11.40;;
71091;SDS011;58751;50.708;7.134;2023-12-04T03:52:55;13.65;;;9.73;;
71091;SDS011;58751;50.708;7.134;2023-12-04T03:55:21;14.63;;;9.83;;
71091;SDS011;58751;50.708;7.134;2023-12-04T03:57:46;16.10;;;10.43;;
71091;SDS011;58751;50.708;7.134;2023-12-04T04:00:12;19.27;;;12.17;;
71091;SDS011;58751;50.708;7.134;2023-12-04T04:02:39;11.95;;;8.40;;
71091;SDS011;58751;50.708;7.134;2023-12-04T04:05:04;14.75;;;11.68;;
71091;SDS011;58751;50.708;7.134;2023-12-04T04:07:31;15.97;;;10.83;;
71091;SDS011;58751;50.708;7.134;2023-12-04T04:09:57;11.65;;;8.70;;
71091;SDS011;58751;50.708;7.134;2023-12-04T04:12:22;16.27;;;10.60;;
71091;SDS011;58751;50.708;7.134;2023-12-04T04:14:48;15.17;;;10.50;;
71091;SDS011;58751;50.708;7.134;2023-12-04T04:17:13;13.43;;;8.93;;
71091;SDS011;58751;50.708;7.134;2023-12-04T04:19:38;16.93;;;11.63;;
71091;SDS011;58751;50.708;7.134;2023-12-04T04:22:04;16.63;;;11.90;;
71091;SDS011;58751;50.708;7.134;2023-12-04T04:24:30;16.60;;;11.50;;
71091;SDS011;58751;50.708;7.134;2023-12-04T04:26:56;15.13;;;11.02;;
71091;SDS011;58751;50.708;7.134;2023-12-04T04:29:21;17.50;;;10.23;;
71091;SDS011;58751;50.708;7.134;2023-12-04T04:31:46;17.37;;;12.77;;
71091;SDS011;58751;50.708;7.134;2023-12-04T04:34:12;19.90;;;12.50;;
71091;SDS011;58751;50.708;7.134;2023-12-04T04:36:37;12.20;;;9.40;;
71091;SDS011;58751;50.708;7.134;2023-12-04T04:39:03;16.60;;;12.43;;
71091;SDS011;58751;50.708;7.134;2023-12-04T04:41:29;16.17;;;11.33;;
71091;SDS011;58751;50.708;7.134;2023-12-04T04:43:55;17.23;;;12.05;;
71091;SDS011;58751;50.708;7.134;2023-12-04T04:46:20;17.67;;;12.33;;
71091;SDS011;58751;50.708;7.134;2023-12-04T04:48:46;18.47;;;11.80;;
71091;SDS011;58751;50.708;7.134;2023-12-04T04:51:11;16.37;;;12.97;;
71091;SDS011;58751;50.708;7.134;2023-12-04T04:53:36;19.47;;;13.33;;
71091;SDS011;58751;50.708;7.134;2023-12-04T04:56:03;15.77;;;10.80;;
71091;SDS011;58751;50.708;7.134;2023-12-04T04:58:30;20.50;;;11.70;;
71091;SDS011;58751;50.708;7.134;2023-12-04T05:00:56;16.65;;;11.70;;
71091;SDS011;58751;50.708;7.134;2023-12-04T05:03:21;17.63;;;11.53;;
71091;SDS011;58751;50.708;7.134;2023-12-04T05:05:46;18.13;;;12.10;;
71091;SDS011;58751;50.708;7.134;2023-12-04T05:08:12;15.97;;;11.60;;
71091;SDS011;58751;50.708;7.134;2023-12-04T05:10:38;17.63;;;13.00;;
71091;SDS011;58751;50.708;7.134;2023-12-04T05:13:03;19.73;;;11.85;;
71091;SDS011;58751;50.708;7.134;2023-12-04T05:15:30;18.43;;;11.90;;
71091;SDS011;58751;50.708;7.134;2023-12-04T05:17:55;17.58;;;12.63;;
71091;SDS011;58751;50.708;7.134;2023-12-04T05:20:21;16.70;;;12.83;;
71091;SDS011;58751;50.708;7.134;2023-12-04T05:22:46;20.60;;;12.97;;
71091;SDS011;58751;50.708;7.134;2023-12-04T05:25:12;20.60;;;12.83;;
71091;SDS011;58751;50.708;7.134;2023-12-04T05:27:37;17.10;;;11.90;;
71091;SDS011;58751;50.708;7.134;2023-12-04T05:30:03;15.47;;;13.37;;
71091;SDS011;58751;50.708;7.134;2023-12-04T05:32:30;17.13;;;13.13;;
71091;SDS011;58751;50.708;7.134;2023-12-04T05:34:56;22.52;;;12.60;;
71091;SDS011;58751;50.708;7.134;2023-12-04T05:37:21;20.30;;;12.60;;
71091;SDS011;58751;50.708;7.134;2023-12-04T05:39:46;17.00;;;12.30;;
71091;SDS011;58751;50.708;7.134;2023-12-04T05:42:12;17.67;;;13.10;;
71091;SDS011;58751;50.708;7.134;2023-12-04T05:44:37;18.17;;;11.40;;
71091;SDS011;58751;50.708;7.134;2023-12-04T05:47:03;16.57;;;12.80;;
71091;SDS011;58751;50.708;7.134;2023-12-04T05:49:29;15.27;;;10.53;;
71091;SDS011;58751;50.708;7.134;2023-12-04T05:51:55;16.25;;;10.00;;
71091;SDS011;58751;50.708;7.134;2023-12-04T05:54:20;15.10;;;12.43;;
71091;SDS011;58751;50.708;7.134;2023-12-04T05:56:46;16.57;;;12.77;;
71091;SDS011;58751;50.708;7.134;2023-12-04T05:59:11;19.07;;;12.87;;
71091;SDS011;58751;50.708;7.134;2023-12-04T06:01:36;16.73;;;12.90;;
71091;SDS011;58751;50.708;7.134;2023-12-04T06:04:02;17.07;;;12.33;;
71091;SDS011;58751;50.708;7.134;2023-12-04T06:06:29;15.87;;;12.00;;
71091;SDS011;58751;50.708;7.134;2023-12-04T06:08:54;18.67;;;12.75;;
71091;SDS011;58751;50.708;7.134;2023-12-04T06:11:19;18.50;;;12.67;;
71091;SDS011;58751;50.708;7.134;2023-12-04T06:13:45;20.17;;;13.00;;
71091;SDS011;58751;50.708;7.134;2023-12-04T06:16:10;20.57;;;11.77;;
71091;SDS011;58751;50.708;7.134;2023-12-04T06:18:35;17.30;;;12.67;;
71091;SDS011;58751;50.708;7.134;2023-12-04T06:21:01;20.10;;;14.70;;
71091;SDS011;58751;50.708;7.134;2023-12-04T06:23:28;18.90;;;12.87;;
71091;SDS011;58751;50.708;7.134;2023-12-04T06:25:54;17.48;;;11.73;;
71091;SDS011;58751;50.708;7.134;2023-12-04T06:28:20;16.85;;;13.20;;
71091;SDS011;58751;50.708;7.134;2023-12-04T06:30:46;16.07;;;12.30;;
71091;SDS011;58751;50.708;7.134;2023-12-04T06:33:12;12.60;;;8.50;;
71091;SDS011;58751;50.708;7.134;2023-12-04T06:35:38;17.40;;;12.77;;
71091;SDS011;58751;50.708;7.134;2023-12-04T06:38:05;17.97;;;12.30;;
71091;SDS011;58751;50.708;7.134;2023-12-04T06:40:33;16.92;;;12.57;;
71091;SDS011;58751;50.708;7.134;2023-12-04T06:42:59;17.35;;;11.68;;
71091;SDS011;58751;50.708;7.134;2023-12-04T06:45:25;15.50;;;11.87;;
71091;SDS011;58751;50.708;7.134;2023-12-04T06:47:51;15.85;;;11.00;;
71091;SDS011;58751;50.708;7.134;2023-12-04T06:50:17;17.50;;;12.30;;
71091;SDS011;58751;50.708;7.134;2023-12-04T06:52:42;16.03;;;11.90;;
71091;SDS011;58751;50.708;7.134;2023-12-04T06:55:08;15.10;;;10.13;;
71091;SDS011;58751;50.708;7.134;2023-12-04T06:57:35;14.50;;;10.80;;
71091;SDS011;58751;50.708;7.134;2023-12-04T07:00:00;12.82;;;10.73;;
71091;SDS011;58751;50.708;7.134;2023-12-04T07:02:26;17.90;;;11.63;;
71091;SDS011;58751;50.708;7.134;2023-12-04T07:04:51;13.10;;;10.33;;
71091;SDS011;58751;50.708;7.134;2023-12-04T07:07:16;16.13;;;10.97;;
71091;SDS011;58751;50.708;7.134;2023-12-04T07:09:42;16.30;;;10.67;;
71091;SDS011;58751;50.708;7.134;2023-12-04T07:12:07;14.43;;;10.30;;
71091;SDS011;58751;50.708;7.134;2023-12-04T07:14:34;14.93;;;11.37;;
71091;SDS011;58751;50.708;7.134;2023-12-04T07:16:59;14.70;;;10.25;;
71091;SDS011;58751;50.708;7.134;2023-12-04T07:19:25;15.00;;;10.53;;
71091;SDS011;58751;50.708;7.134;2023-12-04T07:21:50;19.60;;;11.73;;
71091;SDS011;58751;50.708;7.134;2023-12-04T07:24:16;17.33;;;11.73;;
71091;SDS011;58751;50.708;7.134;2023-12-04T07:26:41;16.73;;;10.90;;
71091;SDS011;58751;50.708;7.134;2023-12-04T07:29:07;15.90;;;12.37;;
71091;SDS011;58751;50.708;7.134;2023-12-04T07:31:33;13.10;;;10.30;;
71091;SDS011;58751;50.708;7.134;2023-12-04T07:33:59;15.68;;;11.00;;
71091;SDS011;58751;50.708;7.134;2023-12-04T07:36:24;17.00;;;11.50;;
71091;SDS011;58751;50.708;7.134;2023-12-04T07:38:49;14.67;;;10.00;;
71091;SDS011;58751;50.708;7.134;2023-12-04T07:41:15;13.10;;;10.90;;
71091;SDS011;58751;50.708;7.134;2023-12-04T07:43:40;15.10;;;11.10;;
71091;SDS011;58751;50.708;7.134;2023-12-04T07:46:06;14.67;;;10.40;;
71091;SDS011;58751;50.708;7.134;2023-12-04T07:48:33;10.93;;;8.90;;
71091;SDS011;58751;50.708;7.134;2023-12-04T07:50:58;13.43;;;10.57;;
71091;SDS011;58751;50.708;7.134;2023-12-04T07:53:23;16.00;;;10.80;;
71091;SDS011;58751;50.708;7.134;2023-12-04T07:55:49;15.53;;;11.60;;
71091;SDS011;58751;50.708;7.134;2023-12-04T07:58:14;14.67;;;9.83;;
71091;SDS011;58751;50.708;7.134;2023-12-04T08:00:39;15.80;;;10.40;;
71091;SDS011;58751;50.708;7.134;2023-12-04T08:03:05;16.80;;;10.53;;
71091;SDS011;58751;50.708;7.134;2023-12-04T08:05:32;13.97;;;11.43;;
71091;SDS011;58751;50.708;7.134;2023-12-04T08:07:57;11.85;;;8.75;;
71091;SDS011;58751;50.708;7.134;2023-12-04T08:10:22;14.00;;;9.50;;
71091;SDS011;58751;50.708;7.134;2023-12-04T08:12:48;13.63;;;8.17;;
71091;SDS011;58751;50.708;7.134;2023-12-04T08:15:13;11.40;;;8.53;;
71091;SDS011;58751;50.708;7.134;2023-12-04T08:17:39;14.13;;;9.37;;
71091;SDS011;58751;50.708;7.134;2023-12-04T08:20:04;14.93;;;10.60;;
71091;SDS011;58751;50.708;7.134;2023-12-04T08:22:32;16.17;;;12.02;;
71091;SDS011;58751;50.708;7.134;2023-12-04T08:24:57;14.60;;;10.00;;
71091;SDS011;58751;50.708;7.134;2023-12-04T08:27:23;13.70;;;9.60;;
71091;SDS011;58751;50.708;7.134;2023-12-04T08:29:48;14.97;;;10.90;;
71091;SDS011;58751;50.708;7.134;2023-12-04T08:32:14;13.80;;;8.47;;
71091;SDS011;58751;50.708;7.134;2023-12-04T08:34:39;16.23;;;11.23;;
71091;SDS011;58751;50.708;7.134;2023-12-04T08:37:04;16.73;;;10.27;;
71091;SDS011;58751;50.708;7.134;2023-12-04T08:39:31;13.03;;;9.40;;
71091;SDS011;58751;50.708;7.134;2023-12-04T08:41:56;16.13;;;9.60;;
71091;SDS011;58751;50.708;7.134;2023-12-04T08:44:22;17.47;;;11.30;;
71091;SDS011;58751;50.708;7.134;2023-12-04T08:46:47;18.27;;;11.97;;
71091;SDS011;58751;50.708;7.134;2023-12-04T08:49:13;14.90;;;11.33;;
71091;SDS011;58751;50.708;7.134;2023-12-04T08:51:38;16.47;;;10.83;;
71091;SDS011;58751;50.708;7.134;2023-12-04T08:54:03;12.30;;;9.60;;
71091;SDS011;58751;50.708;7.134;2023-12-04T08:56:30;13.90;;;10.83;;
71091;SDS011;58751;50.708;7.134;2023-12-04T08:58:56;12.40;;;8.07;;
71091;SDS011;58751;50.708;7.134;2023-12-04T09:01:21;14.83;;;10.27;;
71091;SDS011;58751;50.708;7.134;2023-12-04T09:03:46;15.30;;;10.77;;
71091;SDS011;58751;50.708;7.134;2023-12-04T09:06:12;12.53;;;9.40;;
71091;SDS011;58751;50.708;7.134;2023-12-04T09:08:37;12.80;;;9.77;;
71091;SDS011;58751;50.708;7.134;2023-12-04T09:11:03;11.60;;;8.17;;
71091;SDS011;58751;50.708;7.134;2023-12-04T09:13:30;17.17;;;9.23;;
71091;SDS011;58751;50.708;7.134;2023-12-04T09:15:55;16.20;;;10.95;;
71091;SDS011;58751;50.708;7.134;2023-12-04T09:18:20;14.00;;;9.40;;
71091;SDS011;58751;50.708;7.134;2023-12-04T09:20:46;13.60;;;10.43;;
71091;SDS011;58751;50.708;7.134;2023-12-04T09:23:11;12.00;;;8.77;;
71091;SDS011;58751;50.708;7.134;2023-12-04T09:25:37;14.70;;;9.80;;
71091;SDS011;58751;50.708;7.134;2023-12-04T09:28:02;14.80;;;9.97;;
71091;SDS011;58751;50.708;7.134;2023-12-04T09:30:29;12.70;;;8.20;;
71091;SDS011;58751;50.708;7.134;2023-12-04T09:32:54;15.98;;;10.27;;
71091;SDS011;58751;50.708;7.134;2023-12-04T09:35:20;16.43;;;10.30;;
71091;SDS011;58751;50.708;7.134;2023-12-04T09:37:45;12.80;;;9.13;;
71091;SDS011;58751;50.708;7.134;2023-12-04T09:40:11;7.07;;;6.33;;
71091;SDS011;58751;50.708;7.134;2023-12-04T09:42:36;8.07;;;6.60;;
71091;SDS011;58751;50.708;7.134;2023-12-04T09:45:04;11.05;;;8.27;;
71091;SDS011;58751;50.708;7.134;2023-12-04T09:47:32;10.57;;;8.95;;
71091;SDS011;58751;50.708;7.134;2023-12-04T09:49:58;14.88;;;9.93;;
71091;SDS011;58751;50.708;7.134;2023-12-04T09:52:23;11.17;;;9.37;;
71091;SDS011;58751;50.708;7.134;2023-12-04T09:54:50;15.57;;;8.90;;
71091;SDS011;58751;50.708;7.134;2023-12-04T09:57:15;12.70;;;8.43;;
71091;SDS011;58751;50.708;7.134;2023-12-04T09:59:41;11.77;;;9.07;;
71091;SDS011;58751;50.708;7.134;2023-12-04T10:02:09;13.05;;;8.35;;
71091;SDS011;58751;50.708;7.134;2023-12-04T10:04:36;14.50;;;8.03;;
71091;SDS011;58751;50.708;7.134;2023-12-04T10:07:02;13.68;;;10.63;;
71091;SDS011;58751;50.708;7.134;2023-12-04T10:09:27;9.83;;;7.50;;
71091;SDS011;58751;50.708;7.134;2023-12-04T10:11:53;11.87;;;8.83;;
71091;SDS011;58751;50.708;7.134;2023-12-04T10:14:21;10.00;;;8.35;;
71091;SDS011;58751;50.708;7.134;2023-12-04T10:16:47;11.93;;;8.07;;
71091;SDS011;58751;50.708;7.134;2023-12-04T10:19:20;13.07;;;8.82;;
71091;SDS011;58751;50.708;7.134;2023-12-04T10:21:47;13.90;;;7.97;;
71091;SDS011;58751;50.708;7.134;2023-12-04T10:24:26;11.55;;;7.85;;
71091;SDS011;58751;50.708;7.134;2023-12-04T10:26:52;11.48;;;9.30;;
71091;SDS011;58751;50.708;7.134;2023-12-04T10:29:18;12.60;;;7.33;;
71091;SDS011;58751;50.708;7.134;2023-12-04T10:31:43;11.97;;;7.93;;
71091;SDS011;58751;50.708;7.134;2023-12-04T10:34:09;14.60;;;10.57;;
71091;SDS011;58751;50.708;7.134;2023-12-04T10:36:34;14.33;;;9.73;;
71091;SDS011;58751;50.708;7.134;2023-12-04T10:39:01;12.50;;;8.60;;
71091;SDS011;58751;50.708;7.134;2023-12-04T10:41:27;12.05;;;7.57;;
71091;SDS011;58751;50.708;7.134;2023-12-04T10:43:52;10.93;;;8.60;;
71091;SDS011;58751;50.708;7.134;2023-12-04T10:46:18;11.97;;;8.20;;
71091;SDS011;58751;50.708;7.134;2023-12-04T10:48:43;11.07;;;6.73;;
71091;SDS011;58751;50.708;7.134;2023-12-04T10:51:10;15.20;;;8.02;;
71091;SDS011;58751;50.708;7.134;2023-12-04T10:53:36;13.55;;;8.77;;
71091;SDS011;58751;50.708;7.134;2023-12-04T10:56:04;11.60;;;8.90;;
71091;SDS011;58751;50.708;7.134;2023-12-04T10:58:30;10.75;;;7.95;;
71091;SDS011;58751;50.708;7.134;2023-12-04T11:00:56;10.63;;;8.70;;
71091;SDS011;58751;50.708;7.134;2023-12-04T11:03:25;12.07;;;8.38;;
71091;SDS011;58751;50.708;7.134;2023-12-04T11:05:55;12.02;;;8.25;;
71091;SDS011;58751;50.708;7.134;2023-12-04T11:08:21;14.98;;;9.50;;
71091;SDS011;58751;50.708;7.134;2023-12-04T11:10:48;17.20;;;12.00;;
71091;SDS011;58751;50.708;7.134;2023-12-04T11:13:23;15.40;;;9.10;;
71091;SDS011;58751;50.708;7.134;2023-12-04T11:15:52;11.02;;;8.18;;
71091;SDS011;58751;50.708;7.134;2023-12-04T11:18:20;14.37;;;10.00;;
71091;SDS011;58751;50.708;7.134;2023-12-04T11:20:46;13.48;;;9.80;;
71091;SDS011;58751;50.708;7.134;2023-12-04T11:23:13;14.75;;;10.25;;
71091;SDS011;58751;50.708;7.134;2023-12-04T11:25:39;15.00;;;10.57;;
71091;SDS011;58751;50.708;7.134;2023-12-04T11:28:04;17.60;;;10.03;;
71091;SDS011;58751;50.708;7.134;2023-12-04T11:30:31;10.80;;;8.00;;
71091;SDS011;58751;50.708;7.134;2023-12-04T11:33:00;13.98;;;10.02;;
71091;SDS011;58751;50.708;7.134;2023-12-04T11:35:25;9.85;;;7.40;;
71091;SDS011;58751;50.708;7.134;2023-12-04T11:37:51;15.07;;;9.53;;
71091;SDS011;58751;50.708;7.134;2023-12-04T11:40:17;13.07;;;9.90;;
71091;SDS011;58751;50.708;7.134;2023-12-04T11:42:43;14.47;;;9.83;;
71091;SDS011;58751;50.708;7.134;2023-12-04T11:45:08;11.50;;;9.27;;
71091;SDS011;58751;50.708;7.134;2023-12-04T11:47:51;15.35;;;10.52;;
71091;SDS011;58751;50.708;7.134;2023-12-04T11:50:18;12.73;;;9.88;;
71091;SDS011;58751;50.708;7.134;2023-12-04T11:52:44;11.37;;;8.50;;
71091;SDS011;58751;50.708;7.134;2023-12-04T11:55:09;15.07;;;10.40;;
71091;SDS011;58751;50.708;7.134;2023-12-04T11:57:35;14.27;;;9.97;;
71091;SDS011;58751;50.708;7.134;2023-12-04T12:00:07;14.88;;;10.18;;
71091;SDS011;58751;50.708;7.134;2023-12-04T12:02:34;16.27;;;9.93;;
71091;SDS011;58751;50.708;7.134;2023-12-04T12:05:01;13.50;;;8.50;;
71091;SDS011;58751;50.708;7.134;2023-12-04T12:07:26;11.30;;;7.70;;
71091;SDS011;58751;50.708;7.134;2023-12-04T12:09:52;14.60;;;9.57;;
71091;SDS011;58751;50.708;7.134;2023-12-04T12:12:17;14.10;;;9.40;;
71091;SDS011;58751;50.708;7.134;2023-12-04T12:14:43;14.20;;;8.97;;
71091;SDS011;58751;50.708;7.134;2023-12-04T12:17:08;13.27;;;9.40;;
71091;SDS011;58751;50.708;7.134;2023-12-04T12:19:33;12.10;;;8.90;;
71091;SDS011;58751;50.708;7.134;2023-12-04T12:22:00;17.27;;;11.17;;
71091;SDS011;58751;50.708;7.134;2023-12-04T12:24:25;11.60;;;9.00;;
71091;SDS011;58751;50.708;7.134;2023-12-04T12:26:51;14.87;;;9.67;;
71091;SDS011;58751;50.708;7.134;2023-12-04T12:29:17;10.73;;;8.13;;
71091;SDS011;58751;50.708;7.134;2023-12-04T12:31:42;13.03;;;10.07;;
71091;SDS011;58751;50.708;7.134;2023-12-04T12:34:08;12.73;;;8.90;;
71091;SDS011;58751;50.708;7.134;2023-12-04T12:36:33;10.53;;;9.10;;
71091;SDS011;58751;50.708;7.134;2023-12-04T12:39:00;14.20;;;10.20;;
71091;SDS011;58751;50.708;7.134;2023-12-04T12:41:26;16.00;;;10.82;;
71091;SDS011;58751;50.708;7.134;2023-12-04T12:43:51;13.57;;;9.67;;
71091;SDS011;58751;50.708;7.134;2023-12-04T12:46:17;13.47;;;10.33;;
71091;SDS011;58751;50.708;7.134;2023-12-04T12:48:42;14.53;;;9.40;;
71091;SDS011;58751;50.708;7.134;2023-12-04T12:51:08;12.77;;;8.50;;
71091;SDS011;58751;50.708;7.134;2023-12-04T12:53:33;11.83;;;9.07;;
71091;SDS011;58751;50.708;7.134;2023-12-04T12:56:00;11.07;;;8.00;;
71091;SDS011;58751;50.708;7.134;2023-12-04T12:58:26;10.93;;;7.80;;
71091;SDS011;58751;50.708;7.134;2023-12-04T13:00:51;11.17;;;8.93;;
71091;SDS011;58751;50.708;7.134;2023-12-04T13:03:16;11.30;;;8.80;;
71091;SDS011;58751;50.708;7.134;2023-12-04T13:05:43;13.02;;;8.65;;
71091;SDS011;58751;50.708;7.134;2023-12-04T13:08:08;12.47;;;8.17;;
71091;SDS011;58751;50.708;7.134;2023-12-04T13:10:33;14.43;;;10.17;;
71091;SDS011;58751;50.708;7.134;2023-12-04T13:13:00;12.27;;;8.57;;
71091;SDS011;58751;50.708;7.134;2023-12-04T13:15:25;12.63;;;9.35;;
71091;SDS011;58751;50.708;7.134;2023-12-04T13:17:51;11.63;;;8.13;;
71091;SDS011;58751;50.708;7.134;2023-12-04T13:20:16;10.93;;;7.73;;
71091;SDS011;58751;50.708;7.134;2023-12-04T13:22:42;10.27;;;7.60;;
71091;SDS011;58751;50.708;7.134;2023-12-04T13:25:07;8.80;;;7.77;;
71091;SDS011;58751;50.708;7.134;2023-12-04T13:27:33;9.50;;;8.07;;
71091;SDS011;58751;50.708;7.134;2023-12-04T13:29:59;10.50;;;7.13;;
71091;SDS011;58751;50.708;7.134;2023-12-04T13:32:25;9.38;;;7.75;;
71091;SDS011;58751;50.708;7.134;2023-12-04T13:34:50;10.23;;;7.50;;
71091;SDS011;58751;50.708;7.134;2023-12-04T13:37:16;10.83;;;7.30;;
71091;SDS011;58751;50.708;7.134;2023-12-04T13:39:41;12.20;;;7.17;;
71091;SDS011;58751;50.708;7.134;2023-12-04T13:42:06;9.50;;;7.37;;
71091;SDS011;58751;50.708;7.134;2023-12-04T13:44:32;8.27;;;6.50;;
71091;SDS011;58751;50.708;7.134;2023-12-04T13:46:59;9.13;;;7.07;;
71091;SDS011;58751;50.708;7.134;2023-12-04T13:49:24;9.68;;;7.13;;
71091;SDS011;58751;50.708;7.134;2023-12-04T13:51:49;8.37;;;7.07;;
71091;SDS011;58751;50.708;7.134;2023-12-04T13:54:15;10.93;;;7.30;;
71091;SDS011;58751;50.708;7.134;2023-12-04T13:56:40;10.03;;;7.40;;
71091;SDS011;58751;50.708;7.134;2023-12-04T13:59:06;7.53;;;6.57;;
71091;SDS011;58751;50.708;7.134;2023-12-04T14:01:31;10.23;;;7.57;;
71091;SDS011;58751;50.708;7.134;2023-12-04T14:03:58;9.37;;;7.27;;
71091;SDS011;58751;50.708;7.134;2023-12-04T14:06:23;8.38;;;6.80;;
71091;SDS011;58751;50.708;7.134;2023-12-04T14:08:49;7.43;;;6.37;;
71091;SDS011;58751;50.708;7.134;2023-12-04T14:11:14;9.03;;;6.67;;
71091;SDS011;58751;50.708;7.134;2023-12-04T14:13:39;9.50;;;7.23;;
71091;SDS011;58751;50.708;7.134;2023-12-04T14:16:05;9.50;;;8.50;;
71091;SDS011;58751;50.708;7.134;2023-12-04T14:18:31;10.18;;;8.73;;
71091;SDS011;58751;50.708;7.134;2023-12-04T14:20:58;5.93;;;5.13;;